Track Денисенко Дима

Time Latitude Longitude Accuracy (66% radius in meters) Altitude (meters) Speed (km/hour) Bearing (degrees) Battery (%) GPS flag
10:13:21 50.640968 14.558701 0 0 0 0 1 delete
10:13:20 50.640973 14.558747 0 0 0 0 1 delete
10:13:19 50.640980 14.558778 0 0 0 0 1 delete
10:13:18 50.640993 14.558796 0 0 0 0 1 delete
10:13:17 50.641011 14.558827 0 0 0 0 1 delete
10:13:16 50.641032 14.558892 0 0 0 0 1 delete
10:13:15 50.641056 14.558979 0 0 0 0 1 delete
10:13:14 50.641087 14.559067 0 0 0 0 1 delete
10:13:13 50.641116 14.559149 0 0 0 0 1 delete
10:13:12 50.641148 14.559225 0 0 0 0 1 delete
10:13:11 50.641178 14.559299 0 0 0 0 1 delete
10:13:10 50.641208 14.559364 0 0 0 0 1 delete
10:13:09 50.641232 14.559428 0 0 0 0 1 delete
10:13:08 50.641252 14.559481 0 0 0 0 1 delete
10:13:07 50.641266 14.559528 0 0 0 0 1 delete
10:13:06 50.641281 14.559566 0 0 0 0 1 delete
10:13:05 50.641295 14.559606 0 0 0 0 1 delete
10:13:04 50.641312 14.559643 0 0 0 0 1 delete
10:13:03 50.641325 14.559674 0 0 0 0 1 delete
10:13:02 50.641334 14.559700 0 0 0 0 1 delete
10:13:01 50.641337 14.559724 0 0 0 0 1 delete
10:13:00 50.641344 14.559729 0 0 0 0 1 delete
10:12:59 50.641349 14.559738 0 0 0 0 1 delete
10:12:58 50.641352 14.559756 0 0 0 0 1 delete
10:12:57 50.641347 14.559799 0 0 0 0 1 delete
10:12:56 50.641343 14.559855 0 0 0 0 1 delete
10:12:55 50.641345 14.559912 0 0 0 0 1 delete
10:12:54 50.641349 14.559974 0 0 0 0 1 delete
10:12:53 50.641356 14.560026 0 0 0 0 1 delete
10:12:52 50.641361 14.560075 0 0 0 0 1 delete
10:12:51 50.641371 14.560115 0 0 0 0 1 delete
10:12:50 50.641384 14.560152 0 0 0 0 1 delete
10:12:49 50.641400 14.560187 0 0 0 0 1 delete
10:12:48 50.641421 14.560220 0 0 0 0 1 delete
10:12:47 50.641443 14.560247 0 0 0 0 1 delete
10:12:46 50.641466 14.560270 0 0 0 0 1 delete
10:12:45 50.641479 14.560298 0 0 0 0 1 delete
10:12:44 50.641490 14.560330 0 0 0 0 1 delete
10:12:43 50.641495 14.560365 0 0 0 0 1 delete
10:12:42 50.641500 14.560399 0 0 0 0 1 delete
10:12:41 50.641502 14.560433 0 0 0 0 1 delete
10:12:40 50.641508 14.560478 0 0 0 0 1 delete
10:12:39 50.641516 14.560526 0 0 0 0 1 delete
10:12:38 50.641532 14.560568 0 0 0 0 1 delete
10:12:37 50.641557 14.560589 0 0 0 0 1 delete
10:12:36 50.641588 14.560595 0 0 0 0 1 delete
10:12:35 50.641621 14.560594 0 0 0 0 1 delete
10:12:34 50.641654 14.560595 0 0 0 0 1 delete
10:12:33 50.641689 14.560595 0 0 0 0 1 delete
10:12:32 50.641730 14.560597 0 0 0 0 1 delete